Terminal Aerodrome Forecast
Issued by NWS

Home | Current Version | Previous Version | Text Only | Print | Product List | Glossary On
Versions: 1 2 3 4 5 6 7 8 9 10 11 12 13 14 15 16 17 18
000
FTUS41 KCAR 232339
TAFBHB
TAF
KBHB 232339Z 2400/2424 07012KT P6SM BKN250
     FM240600 08015KT P6SM BKN025
     FM240800 07016KT P6SM OVC015
     FM240900 07017KT 3SM -PL OVC015
     FM241200 07020G30KT 2SM -RAPL OVC007
     FM241700 07025G35KT 2SM -RA OVC003=

USA.gov is the U.S. government's official web portal to all federal, state and local government web resources and services.